Time;durP1;ratioP1;P1;durP2;ratioP2;P2;SDS_P1;SDS_P2;PMS_P1;PMS_P2;Temp;Humidity;BMP_temperature;BMP_pressure;BME280_temperature;BME280_humidity;BME280_pressure;Samples;Min_cycle;Max_cycle;Signal;HPM_P1;HPM_P2
2022/05/12 00:01:27;;;;;;;3.90;1.05;;;18.30;99.90;;;;;;4978905;28;20103;-68
2022/05/12 00:03:53;;;;;;;1.35;0.80;;;18.20;99.90;;;;;;4983077;28;20143;-68
2022/05/12 00:06:18;;;;;;;4.88;1.00;;;18.10;99.90;;;;;;4992493;28;20040;-69
2022/05/12 00:08:44;;;;;;;3.03;1.05;;;18.10;99.90;;;;;;4979253;28;20061;-67
2022/05/12 00:11:09;;;;;;;7.88;1.30;;;18.10;99.90;;;;;;4982565;28;20030;-68
2022/05/12 00:13:35;;;;;;;3.15;0.98;;;18.10;99.90;;;;;;4977921;28;20498;-67
2022/05/12 00:16:01;;;;;;;4.85;1.20;;;18.00;99.90;;;;;;4980534;28;20426;-66
2022/05/12 00:18:26;;;;;;;5.40;0.90;;;18.00;99.90;;;;;;4985440;28;20030;-67
2022/05/12 00:20:53;;;;;;;1.42;1.30;;;17.90;99.90;;;;;;4984391;28;20026;-67
2022/05/12 00:23:26;;;;;;;1.17;0.90;;;17.80;99.90;;;;;;4981542;28;20053;-67
2022/05/12 00:25:52;;;;;;;3.80;1.48;;;17.70;99.90;;;;;;4974030;28;20023;-67
2022/05/12 00:28:20;;;;;;;7.25;1.00;;;17.80;99.90;;;;;;4980180;28;20220;-67
2022/05/12 00:30:48;;;;;;;3.13;0.93;;;17.70;99.90;;;;;;4981351;28;20488;-67
2022/05/12 00:33:15;;;;;;;3.10;1.20;;;17.60;99.90;;;;;;4979514;28;20086;-67
2022/05/12 00:35:42;;;;;;;3.45;1.10;;;17.50;99.90;;;;;;4974786;28;20030;-67
2022/05/12 00:38:08;;;;;;;1.67;0.80;;;17.40;99.90;;;;;;4978408;28;20058;-66
2022/05/12 00:40:34;;;;;;;7.70;1.58;;;17.40;99.90;;;;;;4984229;28;20026;-66
2022/05/12 00:43:03;;;;;;;2.55;0.80;;;17.40;99.90;;;;;;4984204;28;20480;-66
2022/05/12 00:45:31;;;;;;;3.20;0.80;;;17.20;99.90;;;;;;4983244;28;21572;-68
2022/05/12 00:47:57;;;;;;;3.33;0.88;;;17.20;99.90;;;;;;4988703;28;20053;-65
2022/05/12 00:50:28;;;;;;;2.55;0.98;;;17.10;99.90;;;;;;4979347;28;21933;-67
2022/05/12 00:52:55;;;;;;;3.25;0.50;;;17.00;99.90;;;;;;4984842;28;20127;-66
2022/05/12 00:55:26;;;;;;;3.45;0.90;;;17.10;99.90;;;;;;4982129;28;20027;-66
2022/05/12 00:57:55;;;;;;;4.43;0.90;;;17.00;99.90;;;;;;4985043;28;20022;-67
2022/05/12 01:00:23;;;;;;;2.55;0.80;;;17.00;99.90;;;;;;4982577;28;20029;-66
2022/05/12 01:02:54;;;;;;;1.77;0.60;;;16.90;99.90;;;;;;4987067;28;20034;-67
2022/05/12 01:05:22;;;;;;;1.48;0.70;;;16.90;99.90;;;;;;4984476;28;20034;-64
2022/05/12 01:07:51;;;;;;;4.43;1.50;;;16.90;99.90;;;;;;4992463;28;20031;-66
2022/05/12 01:10:17;;;;;;;3.42;0.98;;;16.90;99.90;;;;;;4982184;28;20396;-65
2022/05/12 01:12:46;;;;;;;6.18;0.93;;;16.90;99.90;;;;;;4978297;28;20027;-65
2022/05/12 01:15:12;;;;;;;8.07;1.25;;;16.70;99.90;;;;;;4983012;28;20030;-65
2022/05/12 01:17:38;;;;;;;3.28;0.80;;;16.70;99.90;;;;;;4978132;28;20027;-66
2022/05/12 01:20:04;;;;;;;4.63;1.23;;;16.70;99.90;;;;;;4980397;28;20034;-66
2022/05/12 01:22:39;;;;;;;4.47;1.10;;;16.60;99.90;;;;;;4980455;28;20053;-65
2022/05/12 01:25:10;;;;;;;10.75;1.23;;;16.50;99.90;;;;;;4977823;28;20049;-67
2022/05/12 01:27:36;;;;;;;4.38;1.40;;;16.50;99.90;;;;;;4977762;28;20046;-65
2022/05/12 01:30:02;;;;;;;4.10;1.20;;;16.60;99.90;;;;;;4977750;28;20113;-66
2022/05/12 01:32:28;;;;;;;14.82;3.00;;;16.60;99.90;;;;;;4995410;28;20170;-66
2022/05/12 01:34:55;;;;;;;5.20;1.20;;;16.70;99.90;;;;;;4980334;28;20029;-65
2022/05/12 01:37:22;;;;;;;4.40;1.27;;;16.60;99.90;;;;;;4977911;28;20027;-67
2022/05/12 01:39:48;;;;;;;2.40;1.23;;;16.50;99.90;;;;;;4977040;28;20027;-67
2022/05/12 01:42:14;;;;;;;4.22;1.42;;;16.40;99.90;;;;;;4976531;28;20042;-66
2022/05/12 01:44:41;;;;;;;11.45;2.00;;;16.40;99.90;;;;;;4979620;28;20038;-66
2022/05/12 01:47:10;;;;;;;3.17;1.60;;;16.40;99.90;;;;;;4980603;28;20110;-66
2022/05/12 01:49:36;;;;;;;6.32;1.67;;;16.30;99.90;;;;;;4988134;28;20069;-66
2022/05/12 01:52:02;;;;;;;3.45;1.70;;;16.30;99.90;;;;;;4980349;28;20069;-66
2022/05/12 01:54:29;;;;;;;4.97;1.70;;;16.40;99.90;;;;;;4982572;28;20034;-66
2022/05/12 01:56:55;;;;;;;3.53;1.50;;;16.40;99.90;;;;;;4981216;28;20133;-65
2022/05/12 01:59:23;;;;;;;11.15;2.17;;;16.40;99.90;;;;;;4982868;28;20030;-66
2022/05/12 02:01:49;;;;;;;6.35;1.90;;;16.40;99.90;;;;;;4996411;28;20543;-66
2022/05/12 02:04:15;;;;;;;3.95;1.58;;;16.40;99.90;;;;;;4986487;28;20034;-66
2022/05/12 02:06:42;;;;;;;3.85;2.55;;;16.40;99.90;;;;;;4980877;28;20213;-67
2022/05/12 02:09:08;;;;;;;3.75;2.40;;;16.40;99.90;;;;;;4980684;28;20407;-64
2022/05/12 02:11:34;;;;;;;3.65;1.70;;;16.30;99.90;;;;;;4985766;28;20031;-67
2022/05/12 02:13:59;;;;;;;5.88;2.00;;;16.30;99.90;;;;;;4985489;28;20461;-66
2022/05/12 02:16:26;;;;;;;7.97;1.70;;;16.20;99.90;;;;;;4980423;28;20129;-67
2022/05/12 02:18:52;;;;;;;13.75;3.03;;;16.20;99.90;;;;;;4979789;28;20029;-67
2022/05/12 02:21:18;;;;;;;6.28;2.33;;;16.10;99.90;;;;;;4983160;28;20042;-67
2022/05/12 02:23:44;;;;;;;10.85;2.83;;;16.10;99.90;;;;;;4981818;28;20029;-67
2022/05/12 02:26:10;;;;;;;9.25;2.90;;;16.10;99.90;;;;;;4983783;28;20035;-67
2022/05/12 02:28:36;;;;;;;7.15;2.63;;;16.00;99.90;;;;;;4982321;28;20033;-66
2022/05/12 02:31:02;;;;;;;4.57;2.83;;;16.10;99.90;;;;;;4985340;28;20507;-64
2022/05/12 02:33:27;;;;;;;6.97;2.92;;;16.00;99.90;;;;;;4978356;28;20034;-66
2022/05/12 02:35:53;;;;;;;6.18;2.53;;;15.90;99.90;;;;;;4979059;28;20039;-66
2022/05/12 02:38:19;;;;;;;5.22;3.00;;;15.80;99.90;;;;;;4982344;28;20023;-67
2022/05/12 02:40:45;;;;;;;3.78;2.38;;;15.80;99.90;;;;;;4979601;28;20121;-66
2022/05/12 02:43:25;;;;;;;12.77;2.72;;;15.70;99.90;;;;;;4983952;28;20030;-66
2022/05/12 02:45:58;;;;;;;14.38;2.80;;;15.60;99.90;;;;;;4982716;28;20033;-66
2022/05/12 02:48:27;;;;;;;5.53;2.83;;;15.50;99.90;;;;;;4995567;28;20026;-66
2022/05/12 02:50:54;;;;;;;12.07;3.17;;;15.40;99.90;;;;;;4980471;28;20030;-66
2022/05/12 02:53:19;;;;;;;7.63;3.15;;;15.30;99.90;;;;;;4983754;28;20045;-65
2022/05/12 02:55:45;;;;;;;6.13;2.47;;;15.30;99.90;;;;;;4983027;28;20026;-66
2022/05/12 02:58:11;;;;;;;6.93;2.83;;;15.20;99.90;;;;;;4980024;28;20504;-66
2022/05/12 03:00:38;;;;;;;8.95;2.33;;;15.10;99.90;;;;;;4982378;28;20026;-67
2022/05/12 03:03:05;;;;;;;6.47;3.53;;;15.00;99.90;;;;;;4981140;28;20051;-67
2022/05/12 03:05:31;;;;;;;5.68;2.92;;;15.00;99.90;;;;;;5016309;22;20077;-61
2022/05/12 03:07:57;;;;;;;8.02;3.17;;;15.00;99.90;;;;;;5078484;28;20388;-61
2022/05/12 03:10:23;;;;;;;7.80;2.90;;;15.00;99.90;;;;;;5083449;28;20024;-61
2022/05/12 03:12:49;;;;;;;6.40;2.78;;;14.90;99.90;;;;;;5085215;28;20058;-59
2022/05/12 03:15:15;;;;;;;5.18;2.90;;;14.80;99.90;;;;;;5080172;28;20078;-61
2022/05/12 03:17:42;;;;;;;11.82;3.08;;;14.80;99.90;;;;;;5061896;28;20016;-59
2022/05/12 03:20:09;;;;;;;7.40;2.97;;;14.70;99.90;;;;;;5066534;28;20034;-60
2022/05/12 03:22:36;;;;;;;6.78;3.80;;;14.70;99.90;;;;;;5069904;28;20029;-61
2022/05/12 03:25:03;;;;;;;8.07;3.33;;;14.60;99.90;;;;;;5069508;28;20055;-61
2022/05/12 03:27:29;;;;;;;8.18;3.67;;;14.60;99.90;;;;;;5062096;28;20032;-62
2022/05/12 03:29:55;;;;;;;8.63;3.70;;;14.60;99.90;;;;;;5067528;28;20074;-62
2022/05/12 03:32:21;;;;;;;11.90;3.63;;;14.60;99.90;;;;;;5068518;28;20040;-62
2022/05/12 03:34:46;;;;;;;7.15;3.13;;;14.50;99.90;;;;;;5065328;28;20362;-62
2022/05/12 03:37:12;;;;;;;7.10;3.65;;;14.40;99.90;;;;;;5067237;28;20386;-62
2022/05/12 03:39:39;;;;;;;7.95;3.70;;;14.40;99.90;;;;;;5071265;28;20029;-61
2022/05/12 03:42:06;;;;;;;8.07;3.25;;;14.30;99.90;;;;;;5067644;28;20021;-60
2022/05/12 03:44:47;;;;;;;10.88;3.95;;;14.30;99.90;;;;;;5065477;28;20124;-61
2022/05/12 03:47:33;;;;;;;11.27;3.70;;;14.20;99.90;;;;;;5063998;28;20115;-61
2022/05/12 03:50:11;;;;;;;10.93;3.53;;;14.20;99.90;;;;;;5071826;28;20559;-62
2022/05/12 03:52:37;;;;;;;10.63;3.38;;;14.10;99.90;;;;;;5073500;28;20035;-62
2022/05/12 03:55:06;;;;;;;7.63;3.17;;;14.10;99.90;;;;;;5067603;28;20112;-61
2022/05/12 03:57:31;;;;;;;7.30;3.10;;;14.10;99.90;;;;;;5068047;28;20099;-62
2022/05/12 03:59:57;;;;;;;9.82;3.60;;;14.10;99.90;;;;;;5059889;28;20158;-61
2022/05/12 04:02:24;;;;;;;12.00;3.05;;;14.00;99.90;;;;;;5066332;28;20110;-61
2022/05/12 04:04:50;;;;;;;10.77;3.80;;;14.00;99.90;;;;;;5064933;28;20304;-60
2022/05/12 04:07:21;;;;;;;12.27;3.58;;;14.00;99.90;;;;;;5060006;28;20538;-61
2022/05/12 04:09:48;;;;;;;7.22;3.28;;;14.00;99.90;;;;;;5058325;28;20040;-59
2022/05/12 04:12:13;;;;;;;9.13;3.53;;;14.00;99.90;;;;;;5064105;28;20060;-61
2022/05/12 04:14:41;;;;;;;6.60;2.90;;;13.90;99.90;;;;;;5061938;28;20052;-61
2022/05/12 04:17:10;;;;;;;7.72;2.95;;;13.90;99.90;;;;;;5058454;28;20145;-61
2022/05/12 04:19:36;;;;;;;7.07;3.03;;;13.90;99.90;;;;;;5059080;28;20165;-61
2022/05/12 04:22:03;;;;;;;4.97;2.80;;;13.80;99.90;;;;;;5064359;28;20058;-61
2022/05/12 04:24:29;;;;;;;8.85;3.22;;;13.80;99.90;;;;;;5069390;28;20028;-61
2022/05/12 04:26:55;;;;;;;10.65;3.35;;;13.90;99.90;;;;;;5067469;28;20145;-61
2022/05/12 04:29:20;;;;;;;7.65;3.20;;;13.80;99.90;;;;;;5067416;28;20573;-61
2022/05/12 04:31:46;;;;;;;6.18;2.58;;;13.80;99.90;;;;;;5067438;28;20024;-61
2022/05/12 04:36:55;;;;;;;3.63;2.42;;;13.80;99.90;;;;;;5069416;28;20082;-61
2022/05/12 04:39:21;;;;;;;5.55;3.22;;;13.80;99.90;;;;;;5066969;28;20036;-61
2022/05/12 04:41:47;;;;;;;7.60;3.22;;;13.80;99.90;;;;;;5075146;28;20064;-60
2022/05/12 04:44:13;;;;;;;9.05;3.15;;;13.80;99.90;;;;;;5064996;28;20501;-59
2022/05/12 04:46:40;;;;;;;9.30;3.05;;;13.80;99.90;;;;;;5067298;28;20028;-58
2022/05/12 04:49:08;;;;;;;7.82;3.10;;;13.80;99.90;;;;;;5067605;28;20028;-62
2022/05/12 04:51:33;;;;;;;7.40;2.70;;;13.90;99.90;;;;;;5069592;28;20029;-61
2022/05/12 04:54:00;;;;;;;5.78;2.53;;;13.90;99.90;;;;;;5071316;28;20036;-60
2022/05/12 04:56:26;;;;;;;10.95;3.85;;;13.90;99.90;;;;;;5065744;28;20120;-60
2022/05/12 04:58:52;;;;;;;11.25;3.38;;;13.90;99.90;;;;;;5064256;28;20111;-58
2022/05/12 05:01:18;;;;;;;6.95;2.30;;;13.90;99.90;;;;;;5063538;28;20021;-60
2022/05/12 05:03:44;;;;;;;8.23;2.72;;;13.80;99.90;;;;;;5064721;28;20024;-61
2022/05/12 05:06:10;;;;;;;9.73;3.25;;;13.80;99.90;;;;;;5067508;28;20513;-61
2022/05/12 05:08:36;;;;;;;7.03;3.38;;;13.80;99.90;;;;;;5065236;28;20040;-61
2022/05/12 05:11:04;;;;;;;10.65;3.30;;;13.80;99.90;;;;;;5047869;28;20032;-61
2022/05/12 05:13:30;;;;;;;9.02;3.47;;;13.80;99.90;;;;;;5064044;28;20032;-61
2022/05/12 05:15:55;;;;;;;10.60;4.10;;;13.90;99.90;;;;;;5065530;28;20030;-61
2022/05/12 05:18:22;;;;;;;8.48;3.78;;;13.90;99.90;;;;;;5066104;28;20108;-61
2022/05/12 05:20:48;;;;;;;18.33;4.25;;;13.90;99.90;;;;;;5065348;28;20025;-59
2022/05/12 05:23:21;;;;;;;7.22;3.33;;;14.00;99.90;;;;;;5065633;28;20024;-60
2022/05/12 05:25:47;;;;;;;13.07;4.22;;;14.00;99.90;;;;;;5062608;28;20055;-61
2022/05/12 05:28:13;;;;;;;7.63;3.50;;;14.00;99.90;;;;;;5049055;28;20049;-61
2022/05/12 05:30:41;;;;;;;16.63;3.58;;;14.00;99.90;;;;;;5066685;28;20021;-61
2022/05/12 05:33:07;;;;;;;8.98;3.20;;;14.10;99.90;;;;;;5066887;28;20039;-61
2022/05/12 05:35:34;;;;;;;11.63;3.20;;;14.10;99.90;;;;;;5069320;28;20410;-61
2022/05/12 05:37:59;;;;;;;7.65;4.30;;;14.10;99.90;;;;;;5067427;28;20117;-62
2022/05/12 05:40:26;;;;;;;14.75;3.45;;;14.10;99.90;;;;;;5069021;28;20029;-60
2022/05/12 05:42:53;;;;;;;14.38;4.65;;;14.20;99.90;;;;;;5064440;28;20028;-60
2022/05/12 05:45:19;;;;;;;3.70;2.70;;;14.20;99.90;;;;;;5065003;28;20036;-62
2022/05/12 05:47:50;;;;;;;9.35;3.20;;;14.20;99.90;;;;;;5069758;28;20030;-61
2022/05/12 05:50:20;;;;;;;14.00;2.85;;;14.20;99.90;;;;;;5062258;28;20028;-61
2022/05/12 05:55:29;;;;;;;7.53;2.30;;;14.20;99.90;;;;;;5063381;28;20035;-55
2022/05/12 05:57:58;;;;;;;5.85;1.90;;;14.30;99.90;;;;;;5068823;28;21054;-55
2022/05/12 06:00:24;;;;;;;4.20;2.22;;;14.40;99.90;;;;;;5065942;28;20033;-54
2022/05/12 06:02:50;;;;;;;3.63;2.28;;;14.40;99.90;;;;;;5053316;28;20077;-57
2022/05/12 06:05:17;;;;;;;12.13;2.55;;;14.50;99.90;;;;;;5050278;28;20101;-54
2022/05/12 06:07:43;;;;;;;8.27;2.22;;;14.60;99.90;;;;;;5071188;28;20028;-51
2022/05/12 06:10:09;;;;;;;7.32;2.20;;;14.60;99.90;;;;;;5068134;28;20103;-55
2022/05/12 06:12:35;;;;;;;6.70;1.85;;;14.60;99.90;;;;;;5070251;28;20163;-56
2022/05/12 06:15:01;;;;;;;5.60;1.73;;;14.70;99.90;;;;;;5068378;28;20028;-55
2022/05/12 06:17:27;;;;;;;6.75;2.10;;;14.70;99.90;;;;;;5070188;28;20021;-55
2022/05/12 06:19:54;;;;;;;3.33;1.50;;;14.80;99.90;;;;;;5069595;28;20031;-56
2022/05/12 06:22:20;;;;;;;8.23;1.50;;;14.80;99.90;;;;;;5053200;28;20024;-57
2022/05/12 06:24:50;;;;;;;3.45;1.30;;;14.90;99.90;;;;;;5067564;28;20024;-57
2022/05/12 06:27:19;;;;;;;5.80;1.88;;;14.90;99.90;;;;;;5052314;28;20539;-55
2022/05/12 06:29:45;;;;;;;4.90;1.23;;;15.00;99.90;;;;;;5051044;28;20115;-56
2022/05/12 06:32:11;;;;;;;4.40;1.25;;;15.00;99.90;;;;;;5069782;28;20418;-57
2022/05/12 06:34:37;;;;;;;5.22;1.38;;;15.10;99.90;;;;;;5045800;28;20028;-53
2022/05/12 06:37:04;;;;;;;4.10;1.10;;;15.20;99.90;;;;;;5070897;28;20033;-56
2022/05/12 06:39:30;;;;;;;4.20;2.10;;;15.10;99.90;;;;;;5068143;28;20043;-54
2022/05/12 06:41:56;;;;;;;2.08;1.10;;;15.10;99.90;;;;;;5054028;28;20025;-58
2022/05/12 06:44:22;;;;;;;4.45;1.52;;;15.30;99.90;;;;;;5062627;28;20082;-55
2022/05/12 06:46:47;;;;;;;3.08;1.30;;;15.30;99.90;;;;;;5063121;28;20027;-55
2022/05/12 06:49:13;;;;;;;4.55;1.10;;;15.40;99.90;;;;;;5047480;28;20386;-57
2022/05/12 06:51:39;;;;;;;5.25;1.27;;;15.40;99.90;;;;;;5061150;28;20076;-56
2022/05/12 06:54:05;;;;;;;5.03;1.50;;;15.40;99.90;;;;;;5069831;28;20033;-56
2022/05/12 06:56:30;;;;;;;6.68;1.55;;;15.40;99.90;;;;;;5064631;28;20028;-54
2022/05/12 06:58:56;;;;;;;6.57;1.35;;;15.40;99.90;;;;;;5061721;28;20042;-54
2022/05/12 07:01:23;;;;;;;3.40;1.48;;;15.30;99.90;;;;;;5064342;28;20027;-54
2022/05/12 07:03:48;;;;;;;8.05;1.00;;;15.40;99.90;;;;;;5061423;28;20039;-54
2022/05/12 07:06:14;;;;;;;3.50;1.35;;;15.40;99.90;;;;;;5061766;28;20040;-54
2022/05/12 07:08:41;;;;;;;3.53;1.40;;;15.60;99.90;;;;;;5045118;28;20029;-53
2022/05/12 07:11:08;;;;;;;4.07;1.98;;;15.70;99.90;;;;;;5060257;28;20039;-56
2022/05/12 07:13:34;;;;;;;7.43;1.92;;;15.70;99.90;;;;;;5061633;28;20028;-52
2022/05/12 07:16:01;;;;;;;4.63;1.90;;;15.80;99.90;;;;;;5062327;28;20028;-53
2022/05/12 07:18:27;;;;;;;12.05;2.78;;;15.90;99.90;;;;;;5062163;28;20037;-56
2022/05/12 07:26:36;;;;;;;5.90;2.42;;;16.10;99.90;;;;;;5061405;28;20078;-51
2022/05/12 07:29:06;;;;;;;4.97;2.17;;;16.00;99.90;;;;;;5063744;28;20420;-51
2022/05/12 07:31:32;;;;;;;9.18;2.35;;;16.10;99.90;;;;;;5061209;28;20033;-52
2022/05/12 07:33:58;;;;;;;6.60;2.85;;;16.20;99.90;;;;;;5062951;28;20422;-58
2022/05/12 07:36:26;;;;;;;10.70;3.10;;;16.30;99.90;;;;;;5046261;28;20381;-52
2022/05/12 07:38:53;;;;;;;10.32;2.85;;;16.50;99.90;;;;;;5061750;28;20017;-56
2022/05/12 07:41:19;;;;;;;12.43;2.95;;;16.50;99.90;;;;;;5061629;28;20462;-56
2022/05/12 07:43:47;;;;;;;7.70;2.88;;;16.50;99.90;;;;;;5060736;28;20029;-56
2022/05/12 07:46:15;;;;;;;6.50;3.00;;;16.50;99.90;;;;;;5060562;28;20033;-54
2022/05/12 07:48:41;;;;;;;6.82;3.55;;;16.40;99.90;;;;;;5060027;28;20034;-58
2022/05/12 07:51:08;;;;;;;5.68;3.25;;;16.30;99.90;;;;;;5043234;28;20021;-56
2022/05/12 07:53:34;;;;;;;10.43;3.83;;;16.40;99.90;;;;;;5061424;28;20036;-57
2022/05/12 07:56:00;;;;;;;6.32;2.67;;;16.40;99.90;;;;;;5063680;28;20401;-57
2022/05/12 07:58:26;;;;;;;8.63;3.13;;;16.50;99.90;;;;;;5068996;28;20107;-56
2022/05/12 08:00:53;;;;;;;7.97;2.95;;;16.70;99.90;;;;;;5048077;28;20100;-56
2022/05/12 08:03:19;;;;;;;6.50;3.30;;;16.70;99.90;;;;;;5046276;28;20405;-57
2022/05/12 08:05:45;;;;;;;8.48;2.58;;;16.70;99.90;;;;;;5064203;28;20041;-58
2022/05/12 08:08:11;;;;;;;8.98;3.40;;;16.70;99.90;;;;;;5064628;28;20033;-57
2022/05/12 08:10:37;;;;;;;5.38;2.83;;;16.70;99.90;;;;;;5062649;28;20060;-56
2022/05/12 08:13:04;;;;;;;11.05;3.70;;;16.70;99.90;;;;;;5058711;28;20076;-56
2022/05/12 08:15:30;;;;;;;8.95;3.83;;;16.70;99.90;;;;;;5063492;28;20573;-56
2022/05/12 08:17:56;;;;;;;8.00;3.75;;;16.70;99.90;;;;;;5062283;28;20111;-55
2022/05/12 08:20:23;;;;;;;6.30;4.25;;;16.60;99.90;;;;;;5065632;28;20448;-55
2022/05/12 08:22:49;;;;;;;10.50;3.58;;;16.40;99.90;;;;;;5045138;28;20052;-54
2022/05/12 08:25:15;;;;;;;8.85;4.13;;;16.50;99.90;;;;;;5063967;28;20443;-59
2022/05/12 08:27:41;;;;;;;9.18;4.78;;;16.60;99.90;;;;;;5043986;28;20043;-57
2022/05/12 08:30:11;;;;;;;4.93;3.42;;;16.70;99.90;;;;;;5047528;28;20024;-59
2022/05/12 08:32:37;;;;;;;8.55;4.50;;;16.80;99.90;;;;;;5065631;28;20058;-57
2022/05/12 08:35:03;;;;;;;9.13;3.97;;;17.00;99.90;;;;;;5065260;28;20115;-58
2022/05/12 08:37:29;;;;;;;6.13;4.07;;;16.90;99.90;;;;;;5049796;28;20028;-58
2022/05/12 08:39:56;;;;;;;5.30;3.47;;;17.10;99.90;;;;;;5052935;28;20031;-57
2022/05/12 08:42:35;;;;;;;6.90;3.58;;;17.20;99.90;;;;;;5066237;28;20017;-57
2022/05/12 08:45:07;;;;;;;10.85;4.55;;;17.40;99.90;;;;;;5065746;28;20017;-61
2022/05/12 08:47:38;;;;;;;4.90;2.63;;;17.50;99.90;;;;;;5071741;28;20548;-56
2022/05/12 08:50:08;;;;;;;5.93;3.28;;;17.60;99.90;;;;;;5063116;28;20032;-58
2022/05/12 08:52:42;;;;;;;8.55;3.33;;;17.70;99.90;;;;;;5054109;28;20020;-58
2022/05/12 08:55:40;;;;;;;10.43;3.50;;;17.90;99.90;;;;;;5069956;28;20710;-56
2022/05/12 08:58:08;;;;;;;6.60;3.13;;;18.00;99.90;;;;;;5061927;28;20045;-57
2022/05/12 09:00:44;;;;;;;7.78;2.83;;;17.90;99.90;;;;;;5061155;28;20616;-57
2022/05/12 09:03:29;;;;;;;6.07;3.13;;;17.80;99.90;;;;;;5052488;28;20020;-57
2022/05/12 09:08:32;;;;;;;4.47;2.72;;;18.20;99.90;;;;;;5085708;28;20059;-64
2022/05/12 09:11:18;;;;;;;6.25;2.95;;;18.10;99.90;;;;;;5087079;28;20035;-63
2022/05/12 09:13:49;;;;;;;11.27;3.40;;;18.10;99.90;;;;;;5089226;28;20023;-65
2022/05/12 09:16:32;;;;;;;6.25;2.95;;;17.70;99.90;;;;;;5091517;28;20090;-64
2022/05/12 09:18:59;;;;;;;8.77;3.00;;;17.70;99.90;;;;;;5086175;28;20020;-64
2022/05/12 09:21:31;;;;;;;5.90;3.22;;;17.90;99.90;;;;;;5085856;28;20049;-64
2022/05/12 09:23:57;;;;;;;3.88;2.35;;;18.10;99.90;;;;;;5091924;28;20020;-64
2022/05/12 09:26:32;;;;;;;4.05;2.17;;;18.30;99.90;;;;;;5088191;28;20074;-63
2022/05/12 09:29:14;;;;;;;3.55;1.98;;;18.60;99.90;;;;;;5091552;28;20028;-63
2022/05/12 09:31:52;;;;;;;3.55;1.63;;;18.90;99.90;;;;;;5091340;28;20085;-63
2022/05/12 09:34:23;;;;;;;6.35;2.60;;;19.20;99.90;;;;;;5088102;28;20031;-64
2022/05/12 09:36:49;;;;;;;9.10;2.15;;;19.10;99.90;;;;;;5088676;28;20041;-63
2022/05/12 09:39:31;;;;;;;7.03;2.03;;;19.10;99.90;;;;;;5081580;28;20023;-62
2022/05/12 09:41:57;;;;;;;5.72;2.25;;;19.00;99.90;;;;;;5085858;28;20434;-64
2022/05/12 09:44:28;;;;;;;6.95;3.17;;;19.30;99.90;;;;;;5086737;28;20028;-64
2022/05/12 09:47:16;;;;;;;8.20;2.10;;;19.60;99.90;;;;;;5088971;28;20415;-64
2022/05/12 09:49:44;;;;;;;3.10;1.73;;;19.90;99.90;;;;;;5082829;28;20497;-64
2022/05/12 09:52:39;;;;;;;5.72;1.90;;;19.90;99.90;;;;;;5091169;28;20112;-64
2022/05/12 09:55:16;;;;;;;;;;;19.60;99.90;;;;;;5089262;28;20412;-65
2022/05/12 09:57:52;;;;;;;8.30;1.70;;;19.40;99.90;;;;;;5084897;28;19904;-65
2022/05/12 10:00:41;;;;;;;4.65;1.80;;;19.30;99.90;;;;;;5088261;28;20367;-64
2022/05/12 10:09:10;;;;;;;4.25;1.77;;;19.70;99.90;;;;;;5088749;28;20532;-65
2022/05/12 10:11:43;;;;;;;2.88;1.48;;;20.00;99.90;;;;;;5086491;28;20095;-65
2022/05/12 10:14:36;;;;;;;8.23;1.98;;;20.40;99.90;;;;;;5089164;28;20377;-63
2022/05/12 10:17:09;;;;;;;4.15;1.70;;;20.60;99.90;;;;;;5088517;28;20036;-64
2022/05/12 10:19:37;;;;;;;4.65;1.48;;;20.60;99.90;;;;;;5090608;28;20068;-63
2022/05/12 10:22:18;;;;;;;5.80;1.67;;;20.70;99.90;;;;;;5087145;28;20564;-62
2022/05/12 10:24:50;;;;;;;4.55;1.73;;;20.50;99.90;;;;;;5087891;28;20561;-64
2022/05/12 10:27:37;;;;;;;6.75;1.30;;;20.30;99.90;;;;;;5088081;28;20031;-62
2022/05/12 10:30:20;;;;;;;5.55;1.42;;;20.20;99.90;;;;;;5087549;28;20023;-63
2022/05/12 10:33:20;;;;;;;8.43;1.35;;;20.00;99.90;;;;;;5089055;28;20490;-63
2022/05/12 10:35:59;;;;;;;3.42;1.33;;;19.70;99.90;;;;;;5080877;28;21914;-62
2022/05/12 10:38:46;;;;;;;4.20;1.60;;;19.50;99.90;;;;;;5081830;28;20071;-62
2022/05/12 10:41:19;;;;;;;1.67;1.13;;;19.70;99.90;;;;;;5090404;28;20020;-63
2022/05/12 10:44:09;;;;;;;1.90;1.23;;;20.10;99.90;;;;;;5082608;28;20024;-63
2022/05/12 10:46:54;;;;;;;3.72;1.67;;;20.50;99.90;;;;;;5085846;28;20285;-63
2022/05/12 10:49:40;;;;;;;4.90;1.58;;;20.50;99.90;;;;;;5090560;28;20016;-63
2022/05/12 10:52:27;;;;;;;10.40;1.40;;;20.60;99.90;;;;;;5074896;28;20039;-63
2022/05/12 10:55:04;;;;;;;4.00;1.60;;;20.70;99.90;;;;;;5090851;28;20024;-63
2022/05/12 10:57:44;;;;;;;6.80;1.23;;;21.20;99.90;;;;;;5090428;28;20028;-63
2022/05/12 11:00:29;;;;;;;3.38;1.25;;;21.20;99.90;;;;;;5088329;28;20020;-63
2022/05/12 11:03:01;;;;;;;3.17;1.13;;;21.10;99.90;;;;;;5090745;28;20020;-62
2022/05/12 11:05:45;;;;;;;1.95;1.30;;;20.90;99.90;;;;;;5090337;28;20031;-64
2022/05/12 11:08:32;;;;;;;5.68;1.67;;;20.40;99.90;;;;;;5089352;28;20031;-62
2022/05/12 11:11:09;;;;;;;8.02;1.27;;;20.50;99.90;;;;;;5088350;28;20160;-63
2022/05/12 11:13:50;;;;;;;3.22;1.10;;;20.50;99.90;;;;;;5085342;28;20030;-63
2022/05/12 11:16:24;;;;;;;5.82;1.20;;;20.80;99.90;;;;;;5084483;28;20385;-64
2022/05/12 11:19:05;;;;;;;6.88;1.10;;;20.90;99.90;;;;;;5086830;28;20713;-63
2022/05/12 11:21:36;;;;;;;4.40;1.20;;;20.90;99.90;;;;;;5090297;28;20043;-63
2022/05/12 11:24:23;;;;;;;1.75;1.00;;;21.10;99.90;;;;;;5088986;28;20040;-63
2022/05/12 11:26:49;;;;;;;5.55;1.17;;;21.00;99.90;;;;;;5089579;28;20020;-65
2022/05/12 11:29:43;;;;;;;2.78;1.35;;;20.80;99.90;;;;;;5089747;28;20110;-64
2022/05/12 11:32:34;;;;;;;2.33;1.05;;;20.50;99.90;;;;;;5083961;28;20099;-63
2022/05/12 11:35:38;;;;;;;6.05;1.30;;;21.00;99.90;;;;;;5082513;28;20097;-64
2022/05/12 11:38:06;;;;;;;2.50;0.90;;;21.10;99.90;;;;;;5081160;28;20032;-64
2022/05/12 11:40:40;;;;;;;4.75;1.02;;;21.30;99.90;;;;;;5062367;28;20046;-65
2022/05/12 11:46:24;;;;;;;5.60;1.38;;;21.60;99.90;;;;;;5084367;28;20061;-64
2022/05/12 11:49:00;;;;;;;5.68;1.10;;;21.80;99.90;;;;;;5080726;28;20488;-65
2022/05/12 11:52:07;;;;;;;5.43;1.23;;;22.10;99.90;;;;;;5082788;28;20044;-63
2022/05/12 11:54:36;;;;;;;3.72;1.10;;;22.30;99.90;;;;;;5078348;28;20082;-63
2022/05/12 11:57:05;;;;;;;2.63;1.05;;;22.50;99.90;;;;;;5077798;28;20113;-61
2022/05/12 11:59:33;;;;;;;3.80;1.10;;;22.40;99.90;;;;;;5079850;28;20485;-64
2022/05/12 12:02:33;;;;;;;3.00;1.10;;;22.40;99.90;;;;;;5083433;28;20024;-62
2022/05/12 12:05:01;;;;;;;1.25;0.70;;;22.90;99.90;;;;;;5076625;28;20032;-63
2022/05/12 12:07:32;;;;;;;4.03;1.15;;;23.40;99.90;;;;;;5084012;28;20381;-64
2022/05/12 12:10:04;;;;;;;2.60;1.35;;;22.90;99.90;;;;;;5082827;28;20028;-64
2022/05/12 12:12:42;;;;;;;7.30;1.20;;;22.60;99.90;;;;;;5082218;28;20032;-64
2022/05/12 12:15:26;;;;;;;3.67;1.30;;;22.30;99.90;;;;;;5087155;28;20024;-63
2022/05/12 12:17:52;;;;;;;2.22;1.50;;;22.30;99.90;;;;;;5080315;28;20097;-64
2022/05/12 12:20:29;;;;;;;2.67;1.20;;;22.50;99.90;;;;;;5078040;28;20494;-64
2022/05/12 12:22:58;;;;;;;3.78;1.40;;;23.00;99.90;;;;;;5081846;28;20111;-63
2022/05/12 12:25:36;;;;;;;5.57;1.45;;;23.20;99.90;;;;;;5083146;28;20513;-64
2022/05/12 12:28:27;;;;;;;2.78;1.40;;;23.10;99.90;;;;;;5082249;28;20047;-64
2022/05/12 12:30:53;;;;;;;5.63;1.48;;;22.50;99.90;;;;;;5083414;28;20020;-63
2022/05/12 12:33:24;;;;;;;3.03;1.20;;;22.30;99.90;;;;;;5086399;28;20437;-64
2022/05/12 12:36:15;;;;;;;2.20;1.17;;;22.50;99.90;;;;;;5082738;28;20037;-62
2022/05/12 12:38:46;;;;;;;11.23;1.45;;;22.80;99.90;;;;;;5073661;28;20032;-62
2022/05/12 12:41:29;;;;;;;5.25;1.60;;;22.30;99.90;;;;;;5077210;28;20082;-64
2022/05/12 12:44:17;;;;;;;3.83;1.42;;;22.20;99.90;;;;;;5083181;28;20036;-63
2022/05/12 12:46:49;;;;;;;2.42;1.27;;;22.20;99.90;;;;;;5083249;28;20039;-63
2022/05/12 12:49:29;;;;;;;5.20;1.42;;;22.70;99.90;;;;;;5080990;28;20374;-63
2022/05/12 12:52:07;;;;;;;3.47;1.63;;;22.60;99.90;;;;;;5086975;28;20547;-62
2022/05/12 12:57:23;;;;;;;2.58;1.50;;;22.50;99.90;;;;;;5067442;28;20497;-63
2022/05/12 12:59:57;;;;;;;7.53;1.65;;;22.60;99.90;;;;;;5071635;28;20035;-62
2022/05/12 13:02:40;;;;;;;3.47;1.20;;;23.00;99.90;;;;;;5090529;28;20039;-60
2022/05/12 13:05:11;;;;;;;6.93;1.25;;;23.20;99.90;;;;;;5082009;28;20393;-63
2022/05/12 13:07:39;;;;;;;1.80;1.00;;;23.40;99.90;;;;;;5090241;28;20402;-61
2022/05/12 13:10:16;;;;;;;4.40;1.42;;;23.40;99.90;;;;;;5088959;28;20537;-62
2022/05/12 13:12:57;;;;;;;2.75;1.02;;;23.70;99.90;;;;;;5088582;28;20543;-62
2022/05/12 13:15:23;;;;;;;3.70;1.73;;;23.60;99.90;;;;;;5086647;28;20024;-63
2022/05/12 13:17:51;;;;;;;4.88;1.38;;;23.50;99.90;;;;;;5088855;28;20389;-63
2022/05/12 13:20:20;;;;;;;3.88;1.20;;;23.50;99.90;;;;;;5079529;28;20028;-61
2022/05/12 13:23:05;;;;;;;4.85;2.00;;;23.30;99.90;;;;;;5086703;28;20070;-63
2022/05/12 13:25:33;;;;;;;5.78;2.00;;;22.80;99.90;;;;;;5085478;28;20032;-63
2022/05/12 13:28:00;;;;;;;4.57;1.70;;;22.80;99.90;;;;;;5084335;28;20074;-62